sensor_id;sensor_type;location;lat;lon;timestamp;temperature;humidity
35559;DHT22;21661;50.794;-1.066;2024-01-30T00:01:12;11.40;99.90
35559;DHT22;21661;50.794;-1.066;2024-01-30T00:03:38;11.40;99.90
35559;DHT22;21661;50.794;-1.066;2024-01-30T00:06:04;11.30;99.90
35559;DHT22;21661;50.794;-1.066;2024-01-30T00:08:29;11.20;99.90
35559;DHT22;21661;50.794;-1.066;2024-01-30T00:10:55;11.20;99.90
35559;DHT22;21661;50.794;-1.066;2024-01-30T00:13:21;11.20;99.90
35559;DHT22;21661;50.794;-1.066;2024-01-30T00:15:46;11.20;99.90
35559;DHT22;21661;50.794;-1.066;2024-01-30T00:18:12;11.10;99.90
35559;DHT22;21661;50.794;-1.066;2024-01-30T00:20:38;11.20;99.90
35559;DHT22;21661;50.794;-1.066;2024-01-30T00:23:04;11.00;99.90
35559;DHT22;21661;50.794;-1.066;2024-01-30T00:25:30;11.00;99.90
35559;DHT22;21661;50.794;-1.066;2024-01-30T00:27:55;11.00;99.90
35559;DHT22;21661;50.794;-1.066;2024-01-30T00:30:21;10.90;99.90
35559;DHT22;21661;50.794;-1.066;2024-01-30T00:32:47;10.90;99.90
35559;DHT22;21661;50.794;-1.066;2024-01-30T00:35:12;10.90;99.90
35559;DHT22;21661;50.794;-1.066;2024-01-30T00:37:38;10.90;99.90
35559;DHT22;21661;50.794;-1.066;2024-01-30T00:40:04;10.90;99.90
35559;DHT22;21661;50.794;-1.066;2024-01-30T00:42:31;10.80;99.90
35559;DHT22;21661;50.794;-1.066;2024-01-30T00:44:57;10.90;99.90
35559;DHT22;21661;50.794;-1.066;2024-01-30T00:47:23;10.80;99.90
35559;DHT22;21661;50.794;-1.066;2024-01-30T00:49:49;10.80;99.90
35559;DHT22;21661;50.794;-1.066;2024-01-30T00:52:15;10.80;99.90
35559;DHT22;21661;50.794;-1.066;2024-01-30T00:54:41;10.80;99.90
35559;DHT22;21661;50.794;-1.066;2024-01-30T00:57:07;10.80;99.90
35559;DHT22;21661;50.794;-1.066;2024-01-30T00:59:32;10.80;99.90
35559;DHT22;21661;50.794;-1.066;2024-01-30T01:01:58;10.80;99.90
35559;DHT22;21661;50.794;-1.066;2024-01-30T01:04:24;10.80;99.90
35559;DHT22;21661;50.794;-1.066;2024-01-30T01:06:52;10.80;99.90
35559;DHT22;21661;50.794;-1.066;2024-01-30T01:09:17;10.70;99.90
35559;DHT22;21661;50.794;-1.066;2024-01-30T01:11:43;10.60;99.90
35559;DHT22;21661;50.794;-1.066;2024-01-30T01:14:09;10.60;99.90
35559;DHT22;21661;50.794;-1.066;2024-01-30T01:16:34;10.60;99.90
35559;DHT22;21661;50.794;-1.066;2024-01-30T01:19:00;10.60;99.90
35559;DHT22;21661;50.794;-1.066;2024-01-30T01:21:26;10.60;99.90
35559;DHT22;21661;50.794;-1.066;2024-01-30T01:23:52;10.60;99.90
35559;DHT22;21661;50.794;-1.066;2024-01-30T01:26:18;10.60;99.90
35559;DHT22;21661;50.794;-1.066;2024-01-30T01:28:43;10.50;99.90
35559;DHT22;21661;50.794;-1.066;2024-01-30T01:31:09;10.50;99.90
35559;DHT22;21661;50.794;-1.066;2024-01-30T01:33:35;10.50;99.90
35559;DHT22;21661;50.794;-1.066;2024-01-30T01:36:02;10.50;99.90
35559;DHT22;21661;50.794;-1.066;2024-01-30T01:38:28;10.50;99.90
35559;DHT22;21661;50.794;-1.066;2024-01-30T01:40:54;10.50;99.90
35559;DHT22;21661;50.794;-1.066;2024-01-30T01:43:19;10.50;99.90
35559;DHT22;21661;50.794;-1.066;2024-01-30T01:45:45;10.40;99.90
35559;DHT22;21661;50.794;-1.066;2024-01-30T01:48:11;10.40;99.90
35559;DHT22;21661;50.794;-1.066;2024-01-30T01:50:38;10.40;99.90
35559;DHT22;21661;50.794;-1.066;2024-01-30T01:53:07;10.40;99.90
35559;DHT22;21661;50.794;-1.066;2024-01-30T01:55:33;10.30;99.90
35559;DHT22;21661;50.794;-1.066;2024-01-30T01:57:59;10.30;99.90
35559;DHT22;21661;50.794;-1.066;2024-01-30T02:00:25;10.30;99.90
35559;DHT22;21661;50.794;-1.066;2024-01-30T02:02:51;10.30;99.90
35559;DHT22;21661;50.794;-1.066;2024-01-30T02:05:19;10.30;99.90
35559;DHT22;21661;50.794;-1.066;2024-01-30T02:07:46;10.30;99.90
35559;DHT22;21661;50.794;-1.066;2024-01-30T02:10:12;10.20;99.90
35559;DHT22;21661;50.794;-1.066;2024-01-30T02:12:38;10.30;99.90
35559;DHT22;21661;50.794;-1.066;2024-01-30T02:15:05;10.30;99.90
35559;DHT22;21661;50.794;-1.066;2024-01-30T02:17:31;10.30;99.90
35559;DHT22;21661;50.794;-1.066;2024-01-30T02:19:57;10.20;99.90
35559;DHT22;21661;50.794;-1.066;2024-01-30T02:22:22;10.10;99.90
35559;DHT22;21661;50.794;-1.066;2024-01-30T02:24:49;10.10;99.90
35559;DHT22;21661;50.794;-1.066;2024-01-30T02:27:15;10.10;99.90
35559;DHT22;21661;50.794;-1.066;2024-01-30T02:29:40;10.10;99.90
35559;DHT22;21661;50.794;-1.066;2024-01-30T02:32:06;10.10;99.90
35559;DHT22;21661;50.794;-1.066;2024-01-30T02:34:33;10.10;99.90
35559;DHT22;21661;50.794;-1.066;2024-01-30T02:36:59;10.10;99.90
35559;DHT22;21661;50.794;-1.066;2024-01-30T02:39:25;10.20;99.90
35559;DHT22;21661;50.794;-1.066;2024-01-30T02:41:51;10.20;99.90
35559;DHT22;21661;50.794;-1.066;2024-01-30T02:44:16;10.20;99.90
35559;DHT22;21661;50.794;-1.066;2024-01-30T02:46:42;10.30;99.90
35559;DHT22;21661;50.794;-1.066;2024-01-30T02:49:08;10.20;99.90
35559;DHT22;21661;50.794;-1.066;2024-01-30T02:51:33;10.30;99.90
35559;DHT22;21661;50.794;-1.066;2024-01-30T02:53:59;10.30;99.90
35559;DHT22;21661;50.794;-1.066;2024-01-30T02:56:24;10.30;99.90
35559;DHT22;21661;50.794;-1.066;2024-01-30T02:58:50;10.40;99.90
35559;DHT22;21661;50.794;-1.066;2024-01-30T03:01:16;10.40;99.90
35559;DHT22;21661;50.794;-1.066;2024-01-30T03:03:41;10.40;99.90
35559;DHT22;21661;50.794;-1.066;2024-01-30T03:06:08;10.40;99.90
35559;DHT22;21661;50.794;-1.066;2024-01-30T03:08:34;10.40;99.90
35559;DHT22;21661;50.794;-1.066;2024-01-30T03:11:00;10.40;99.90
35559;DHT22;21661;50.794;-1.066;2024-01-30T03:13:26;10.40;99.90
35559;DHT22;21661;50.794;-1.066;2024-01-30T03:15:51;10.50;99.90
35559;DHT22;21661;50.794;-1.066;2024-01-30T03:18:17;10.50;99.90
35559;DHT22;21661;50.794;-1.066;2024-01-30T03:20:43;10.40;99.90
35559;DHT22;21661;50.794;-1.066;2024-01-30T03:23:09;10.40;99.90
35559;DHT22;21661;50.794;-1.066;2024-01-30T03:25:35;10.40;99.90
35559;DHT22;21661;50.794;-1.066;2024-01-30T03:28:01;10.40;99.90
35559;DHT22;21661;50.794;-1.066;2024-01-30T03:30:26;10.40;99.90
35559;DHT22;21661;50.794;-1.066;2024-01-30T03:32:52;10.40;99.90
35559;DHT22;21661;50.794;-1.066;2024-01-30T03:35:19;10.30;99.90
35559;DHT22;21661;50.794;-1.066;2024-01-30T03:37:44;10.30;99.90
35559;DHT22;21661;50.794;-1.066;2024-01-30T03:40:10;10.30;99.90
35559;DHT22;21661;50.794;-1.066;2024-01-30T03:42:36;10.30;99.90
35559;DHT22;21661;50.794;-1.066;2024-01-30T03:45:02;10.30;99.90
35559;DHT22;21661;50.794;-1.066;2024-01-30T03:47:28;10.20;99.90
35559;DHT22;21661;50.794;-1.066;2024-01-30T03:49:53;10.10;99.90
35559;DHT22;21661;50.794;-1.066;2024-01-30T03:52:19;10.10;99.90
35559;DHT22;21661;50.794;-1.066;2024-01-30T03:54:44;10.10;99.90
35559;DHT22;21661;50.794;-1.066;2024-01-30T03:57:10;10.10;99.90
35559;DHT22;21661;50.794;-1.066;2024-01-30T03:59:36;10.00;99.90
35559;DHT22;21661;50.794;-1.066;2024-01-30T04:02:02;10.00;99.90
35559;DHT22;21661;50.794;-1.066;2024-01-30T04:04:28;10.10;99.90
35559;DHT22;21661;50.794;-1.066;2024-01-30T04:06:53;10.00;99.90
35559;DHT22;21661;50.794;-1.066;2024-01-30T04:09:19;10.00;99.90
35559;DHT22;21661;50.794;-1.066;2024-01-30T04:11:44;10.00;99.90
35559;DHT22;21661;50.794;-1.066;2024-01-30T04:14:10;10.00;99.90
35559;DHT22;21661;50.794;-1.066;2024-01-30T04:16:36;9.90;99.90
35559;DHT22;21661;50.794;-1.066;2024-01-30T04:19:02;9.90;99.90
35559;DHT22;21661;50.794;-1.066;2024-01-30T04:21:27;9.90;99.90
35559;DHT22;21661;50.794;-1.066;2024-01-30T04:23:53;9.90;99.90
35559;DHT22;21661;50.794;-1.066;2024-01-30T04:26:18;9.90;99.90
35559;DHT22;21661;50.794;-1.066;2024-01-30T04:28:44;9.90;99.90
35559;DHT22;21661;50.794;-1.066;2024-01-30T04:31:10;9.90;99.90
35559;DHT22;21661;50.794;-1.066;2024-01-30T04:33:36;9.90;99.90
35559;DHT22;21661;50.794;-1.066;2024-01-30T04:36:02;9.80;99.90
35559;DHT22;21661;50.794;-1.066;2024-01-30T04:38:28;9.80;99.90
35559;DHT22;21661;50.794;-1.066;2024-01-30T04:40:54;9.80;99.90
35559;DHT22;21661;50.794;-1.066;2024-01-30T04:43:19;9.80;99.90
35559;DHT22;21661;50.794;-1.066;2024-01-30T04:45:46;9.80;99.90
35559;DHT22;21661;50.794;-1.066;2024-01-30T04:48:12;9.80;99.90
35559;DHT22;21661;50.794;-1.066;2024-01-30T04:50:37;9.80;99.90
35559;DHT22;21661;50.794;-1.066;2024-01-30T04:53:03;9.80;99.90
35559;DHT22;21661;50.794;-1.066;2024-01-30T04:55:29;9.80;99.90
35559;DHT22;21661;50.794;-1.066;2024-01-30T04:57:54;9.80;99.90
35559;DHT22;21661;50.794;-1.066;2024-01-30T05:00:20;9.70;99.90
35559;DHT22;21661;50.794;-1.066;2024-01-30T05:02:45;9.70;99.90
35559;DHT22;21661;50.794;-1.066;2024-01-30T05:05:11;9.70;99.90
35559;DHT22;21661;50.794;-1.066;2024-01-30T05:07:37;9.70;99.90
35559;DHT22;21661;50.794;-1.066;2024-01-30T05:10:02;9.60;99.90
35559;DHT22;21661;50.794;-1.066;2024-01-30T05:12:29;9.60;99.90
35559;DHT22;21661;50.794;-1.066;2024-01-30T05:14:54;9.60;99.90
35559;DHT22;21661;50.794;-1.066;2024-01-30T05:17:20;9.50;99.90
35559;DHT22;21661;50.794;-1.066;2024-01-30T05:19:46;9.50;99.90
35559;DHT22;21661;50.794;-1.066;2024-01-30T05:22:11;9.50;99.90
35559;DHT22;21661;50.794;-1.066;2024-01-30T05:24:41;9.40;99.90
35559;DHT22;21661;50.794;-1.066;2024-01-30T05:27:07;9.40;99.90
35559;DHT22;21661;50.794;-1.066;2024-01-30T05:29:33;9.40;99.90
35559;DHT22;21661;50.794;-1.066;2024-01-30T05:31:59;9.40;99.90
35559;DHT22;21661;50.794;-1.066;2024-01-30T05:34:24;9.40;99.90
35559;DHT22;21661;50.794;-1.066;2024-01-30T05:36:50;9.40;99.90
35559;DHT22;21661;50.794;-1.066;2024-01-30T05:39:15;9.40;99.90
35559;DHT22;21661;50.794;-1.066;2024-01-30T05:41:41;9.40;99.90
35559;DHT22;21661;50.794;-1.066;2024-01-30T05:44:07;9.30;99.90
35559;DHT22;21661;50.794;-1.066;2024-01-30T05:46:33;9.20;99.90
35559;DHT22;21661;50.794;-1.066;2024-01-30T05:48:59;9.30;99.90
35559;DHT22;21661;50.794;-1.066;2024-01-30T05:51:24;9.20;99.90
35559;DHT22;21661;50.794;-1.066;2024-01-30T05:53:50;9.20;99.90
35559;DHT22;21661;50.794;-1.066;2024-01-30T05:56:16;9.30;99.90
35559;DHT22;21661;50.794;-1.066;2024-01-30T05:58:41;9.30;99.90
35559;DHT22;21661;50.794;-1.066;2024-01-30T06:01:08;9.30;99.90
35559;DHT22;21661;50.794;-1.066;2024-01-30T06:03:34;9.20;99.90
35559;DHT22;21661;50.794;-1.066;2024-01-30T06:06:00;9.20;99.90
35559;DHT22;21661;50.794;-1.066;2024-01-30T06:08:26;9.20;99.90
35559;DHT22;21661;50.794;-1.066;2024-01-30T06:10:52;9.20;99.90
35559;DHT22;21661;50.794;-1.066;2024-01-30T06:13:17;9.20;99.90
35559;DHT22;21661;50.794;-1.066;2024-01-30T06:15:43;9.20;99.90
35559;DHT22;21661;50.794;-1.066;2024-01-30T06:18:09;9.20;99.90
35559;DHT22;21661;50.794;-1.066;2024-01-30T06:20:34;9.20;99.90
35559;DHT22;21661;50.794;-1.066;2024-01-30T06:23:00;9.20;99.90
35559;DHT22;21661;50.794;-1.066;2024-01-30T06:25:26;9.20;99.90
35559;DHT22;21661;50.794;-1.066;2024-01-30T06:27:51;9.20;99.90
35559;DHT22;21661;50.794;-1.066;2024-01-30T06:30:18;9.20;99.90
35559;DHT22;21661;50.794;-1.066;2024-01-30T06:32:43;9.10;99.90
35559;DHT22;21661;50.794;-1.066;2024-01-30T06:35:09;9.10;99.90
35559;DHT22;21661;50.794;-1.066;2024-01-30T06:37:36;9.10;99.90
35559;DHT22;21661;50.794;-1.066;2024-01-30T06:40:02;9.10;99.90
35559;DHT22;21661;50.794;-1.066;2024-01-30T06:42:30;9.10;99.90
35559;DHT22;21661;50.794;-1.066;2024-01-30T06:44:56;9.10;99.90
35559;DHT22;21661;50.794;-1.066;2024-01-30T06:47:21;9.10;99.90
35559;DHT22;21661;50.794;-1.066;2024-01-30T06:49:47;9.10;99.90
35559;DHT22;21661;50.794;-1.066;2024-01-30T06:52:12;9.10;99.90
35559;DHT22;21661;50.794;-1.066;2024-01-30T06:54:39;9.10;99.90
35559;DHT22;21661;50.794;-1.066;2024-01-30T06:57:05;9.10;99.90
35559;DHT22;21661;50.794;-1.066;2024-01-30T06:59:34;9.00;99.90
35559;DHT22;21661;50.794;-1.066;2024-01-30T07:02:00;9.00;99.90
35559;DHT22;21661;50.794;-1.066;2024-01-30T07:04:25;9.00;99.90
35559;DHT22;21661;50.794;-1.066;2024-01-30T07:06:51;9.10;99.90
35559;DHT22;21661;50.794;-1.066;2024-01-30T07:09:18;9.10;99.90
35559;DHT22;21661;50.794;-1.066;2024-01-30T07:11:44;9.10;99.90
35559;DHT22;21661;50.794;-1.066;2024-01-30T07:14:10;9.10;99.90
35559;DHT22;21661;50.794;-1.066;2024-01-30T07:16:36;9.10;99.90
35559;DHT22;21661;50.794;-1.066;2024-01-30T07:19:01;9.10;99.90
35559;DHT22;21661;50.794;-1.066;2024-01-30T07:21:27;9.10;99.90
35559;DHT22;21661;50.794;-1.066;2024-01-30T07:23:57;9.10;99.90
35559;DHT22;21661;50.794;-1.066;2024-01-30T07:26:22;9.10;99.90
35559;DHT22;21661;50.794;-1.066;2024-01-30T07:28:48;9.10;99.90
35559;DHT22;21661;50.794;-1.066;2024-01-30T07:31:15;9.10;99.90
35559;DHT22;21661;50.794;-1.066;2024-01-30T07:33:41;9.10;99.90
35559;DHT22;21661;50.794;-1.066;2024-01-30T07:36:06;9.10;99.90
35559;DHT22;21661;50.794;-1.066;2024-01-30T07:38:32;9.10;99.90
35559;DHT22;21661;50.794;-1.066;2024-01-30T07:40:58;9.00;99.90
35559;DHT22;21661;50.794;-1.066;2024-01-30T07:43:23;9.00;99.90
35559;DHT22;21661;50.794;-1.066;2024-01-30T07:45:49;9.10;99.90
35559;DHT22;21661;50.794;-1.066;2024-01-30T07:48:15;9.10;99.90
35559;DHT22;21661;50.794;-1.066;2024-01-30T07:50:40;9.20;99.90
35559;DHT22;21661;50.794;-1.066;2024-01-30T07:53:06;9.20;99.90
35559;DHT22;21661;50.794;-1.066;2024-01-30T07:55:32;9.10;99.90
35559;DHT22;21661;50.794;-1.066;2024-01-30T07:57:58;9.10;99.90
35559;DHT22;21661;50.794;-1.066;2024-01-30T08:00:27;9.00;99.90
35559;DHT22;21661;50.794;-1.066;2024-01-30T08:02:54;9.00;99.90
35559;DHT22;21661;50.794;-1.066;2024-01-30T08:05:21;9.10;99.90
35559;DHT22;21661;50.794;-1.066;2024-01-30T08:07:48;9.10;99.90
35559;DHT22;21661;50.794;-1.066;2024-01-30T08:10:14;9.10;99.90
35559;DHT22;21661;50.794;-1.066;2024-01-30T08:12:40;9.00;99.90
35559;DHT22;21661;50.794;-1.066;2024-01-30T08:15:06;9.10;99.90
35559;DHT22;21661;50.794;-1.066;2024-01-30T08:17:31;9.10;99.90
35559;DHT22;21661;50.794;-1.066;2024-01-30T08:19:57;9.00;99.90
35559;DHT22;21661;50.794;-1.066;2024-01-30T08:22:22;9.00;99.90
35559;DHT22;21661;50.794;-1.066;2024-01-30T08:24:48;9.00;99.90
35559;DHT22;21661;50.794;-1.066;2024-01-30T08:27:14;9.10;99.90
35559;DHT22;21661;50.794;-1.066;2024-01-30T08:29:40;9.10;99.90
35559;DHT22;21661;50.794;-1.066;2024-01-30T08:32:06;9.10;99.90
35559;DHT22;21661;50.794;-1.066;2024-01-30T08:34:32;9.10;99.90
35559;DHT22;21661;50.794;-1.066;2024-01-30T08:36:57;9.10;99.90
35559;DHT22;21661;50.794;-1.066;2024-01-30T08:39:23;9.10;99.90
35559;DHT22;21661;50.794;-1.066;2024-01-30T08:41:49;9.20;99.90
35559;DHT22;21661;50.794;-1.066;2024-01-30T08:44:14;9.10;99.90
35559;DHT22;21661;50.794;-1.066;2024-01-30T08:46:40;9.20;99.90
35559;DHT22;21661;50.794;-1.066;2024-01-30T08:49:06;9.10;99.90
35559;DHT22;21661;50.794;-1.066;2024-01-30T08:51:31;9.10;99.90
35559;DHT22;21661;50.794;-1.066;2024-01-30T08:53:57;9.10;99.90
35559;DHT22;21661;50.794;-1.066;2024-01-30T08:56:22;9.10;99.90
35559;DHT22;21661;50.794;-1.066;2024-01-30T08:58:48;9.10;99.90
35559;DHT22;21661;50.794;-1.066;2024-01-30T09:01:14;9.10;99.90
35559;DHT22;21661;50.794;-1.066;2024-01-30T09:03:40;9.10;99.90
35559;DHT22;21661;50.794;-1.066;2024-01-30T09:06:10;9.10;99.90
35559;DHT22;21661;50.794;-1.066;2024-01-30T09:08:35;9.10;99.90
35559;DHT22;21661;50.794;-1.066;2024-01-30T09:11:12;9.10;99.90
35559;DHT22;21661;50.794;-1.066;2024-01-30T09:13:38;9.20;99.90
35559;DHT22;21661;50.794;-1.066;2024-01-30T09:16:04;9.20;99.90
35559;DHT22;21661;50.794;-1.066;2024-01-30T09:18:30;9.20;99.90
35559;DHT22;21661;50.794;-1.066;2024-01-30T09:20:56;9.20;99.90
35559;DHT22;21661;50.794;-1.066;2024-01-30T09:23:21;9.20;99.90
35559;DHT22;21661;50.794;-1.066;2024-01-30T09:25:47;9.20;99.90
35559;DHT22;21661;50.794;-1.066;2024-01-30T09:28:13;9.10;99.90
35559;DHT22;21661;50.794;-1.066;2024-01-30T09:30:39;9.20;99.90
35559;DHT22;21661;50.794;-1.066;2024-01-30T09:33:05;9.20;99.90
35559;DHT22;21661;50.794;-1.066;2024-01-30T09:35:31;9.20;99.90
35559;DHT22;21661;50.794;-1.066;2024-01-30T09:37:57;9.20;99.90
35559;DHT22;21661;50.794;-1.066;2024-01-30T09:40:23;9.30;99.90
35559;DHT22;21661;50.794;-1.066;2024-01-30T09:42:51;9.20;99.90
35559;DHT22;21661;50.794;-1.066;2024-01-30T09:45:20;9.30;99.90
35559;DHT22;21661;50.794;-1.066;2024-01-30T09:47:48;9.30;99.90
35559;DHT22;21661;50.794;-1.066;2024-01-30T09:50:15;9.30;99.90
35559;DHT22;21661;50.794;-1.066;2024-01-30T09:52:45;9.30;99.90
35559;DHT22;21661;50.794;-1.066;2024-01-30T09:55:12;9.30;99.90
35559;DHT22;21661;50.794;-1.066;2024-01-30T09:57:37;9.30;99.90
35559;DHT22;21661;50.794;-1.066;2024-01-30T10:00:04;9.30;99.90
35559;DHT22;21661;50.794;-1.066;2024-01-30T10:02:33;9.30;99.90
35559;DHT22;21661;50.794;-1.066;2024-01-30T10:04:59;9.30;99.90
35559;DHT22;21661;50.794;-1.066;2024-01-30T10:07:25;9.30;99.90
35559;DHT22;21661;50.794;-1.066;2024-01-30T10:09:51;9.30;99.90
35559;DHT22;21661;50.794;-1.066;2024-01-30T10:12:18;9.40;99.90
35559;DHT22;21661;50.794;-1.066;2024-01-30T10:14:44;9.30;99.90
35559;DHT22;21661;50.794;-1.066;2024-01-30T10:17:11;9.20;99.90
35559;DHT22;21661;50.794;-1.066;2024-01-30T10:19:41;9.30;99.90
35559;DHT22;21661;50.794;-1.066;2024-01-30T10:22:07;9.30;99.90
35559;DHT22;21661;50.794;-1.066;2024-01-30T10:24:36;9.30;99.90
35559;DHT22;21661;50.794;-1.066;2024-01-30T10:27:02;9.30;99.90
35559;DHT22;21661;50.794;-1.066;2024-01-30T10:29:28;9.20;99.90
35559;DHT22;21661;50.794;-1.066;2024-01-30T10:32:04;9.20;99.90
35559;DHT22;21661;50.794;-1.066;2024-01-30T10:34:30;9.30;99.90
35559;DHT22;21661;50.794;-1.066;2024-01-30T10:37:00;9.20;99.90
35559;DHT22;21661;50.794;-1.066;2024-01-30T10:39:32;9.10;99.90
35559;DHT22;21661;50.794;-1.066;2024-01-30T10:42:04;9.10;99.90
35559;DHT22;21661;50.794;-1.066;2024-01-30T10:47:26;9.20;99.90
35559;DHT22;21661;50.794;-1.066;2024-01-30T10:49:54;9.20;99.90
35559;DHT22;21661;50.794;-1.066;2024-01-30T10:52:20;9.20;99.90
35559;DHT22;21661;50.794;-1.066;2024-01-30T10:54:46;9.20;99.90
35559;DHT22;21661;50.794;-1.066;2024-01-30T10:57:13;9.20;99.90
35559;DHT22;21661;50.794;-1.066;2024-01-30T10:59:41;9.30;99.90
35559;DHT22;21661;50.794;-1.066;2024-01-30T11:02:08;9.30;99.90
35559;DHT22;21661;50.794;-1.066;2024-01-30T11:04:39;9.50;99.90
35559;DHT22;21661;50.794;-1.066;2024-01-30T11:07:19;9.60;99.90
35559;DHT22;21661;50.794;-1.066;2024-01-30T11:09:50;9.60;99.90
35559;DHT22;21661;50.794;-1.066;2024-01-30T11:12:16;9.60;99.90
35559;DHT22;21661;50.794;-1.066;2024-01-30T11:14:42;9.50;99.90
35559;DHT22;21661;50.794;-1.066;2024-01-30T11:17:10;9.60;99.90
35559;DHT22;21661;50.794;-1.066;2024-01-30T11:19:38;9.60;99.90
35559;DHT22;21661;50.794;-1.066;2024-01-30T11:22:06;9.40;99.90
35559;DHT22;21661;50.794;-1.066;2024-01-30T11:24:39;9.30;99.90
35559;DHT22;21661;50.794;-1.066;2024-01-30T11:27:08;9.40;99.90
35559;DHT22;21661;50.794;-1.066;2024-01-30T11:29:35;9.40;99.90
35559;DHT22;21661;50.794;-1.066;2024-01-30T11:32:01;9.40;99.90
35559;DHT22;21661;50.794;-1.066;2024-01-30T11:34:26;9.50;99.90
35559;DHT22;21661;50.794;-1.066;2024-01-30T11:36:55;9.50;99.90
35559;DHT22;21661;50.794;-1.066;2024-01-30T11:39:25;9.40;99.90
35559;DHT22;21661;50.794;-1.066;2024-01-30T11:41:52;9.50;99.90
35559;DHT22;21661;50.794;-1.066;2024-01-30T11:44:22;9.50;99.90
35559;DHT22;21661;50.794;-1.066;2024-01-30T11:46:49;9.50;99.90
35559;DHT22;21661;50.794;-1.066;2024-01-30T11:49:19;9.50;99.90
35559;DHT22;21661;50.794;-1.066;2024-01-30T11:51:48;9.60;99.90
35559;DHT22;21661;50.794;-1.066;2024-01-30T11:54:18;9.50;99.90
35559;DHT22;21661;50.794;-1.066;2024-01-30T11:56:43;9.60;99.90
35559;DHT22;21661;50.794;-1.066;2024-01-30T11:59:09;9.60;99.90
35559;DHT22;21661;50.794;-1.066;2024-01-30T12:01:35;9.50;99.90
35559;DHT22;21661;50.794;-1.066;2024-01-30T12:04:01;9.50;99.90
35559;DHT22;21661;50.794;-1.066;2024-01-30T12:06:28;9.40;99.90
35559;DHT22;21661;50.794;-1.066;2024-01-30T12:09:01;9.40;99.90
35559;DHT22;21661;50.794;-1.066;2024-01-30T12:11:30;9.50;99.90
35559;DHT22;21661;50.794;-1.066;2024-01-30T12:13:56;9.40;99.90
35559;DHT22;21661;50.794;-1.066;2024-01-30T12:16:22;9.50;99.90
35559;DHT22;21661;50.794;-1.066;2024-01-30T12:18:48;9.50;99.90
35559;DHT22;21661;50.794;-1.066;2024-01-30T12:21:16;9.50;99.90
35559;DHT22;21661;50.794;-1.066;2024-01-30T12:23:43;9.60;99.90
35559;DHT22;21661;50.794;-1.066;2024-01-30T12:26:10;9.60;99.90
35559;DHT22;21661;50.794;-1.066;2024-01-30T12:28:36;9.70;99.90
35559;DHT22;21661;50.794;-1.066;2024-01-30T12:31:02;9.60;99.90
35559;DHT22;21661;50.794;-1.066;2024-01-30T12:33:29;9.60;99.90
35559;DHT22;21661;50.794;-1.066;2024-01-30T12:35:55;9.70;99.90
35559;DHT22;21661;50.794;-1.066;2024-01-30T12:38:21;9.70;99.90
35559;DHT22;21661;50.794;-1.066;2024-01-30T12:40:46;9.70;99.90
35559;DHT22;21661;50.794;-1.066;2024-01-30T12:43:13;9.80;99.90
35559;DHT22;21661;50.794;-1.066;2024-01-30T12:45:41;9.80;99.90
35559;DHT22;21661;50.794;-1.066;2024-01-30T12:48:08;9.80;99.90
35559;DHT22;21661;50.794;-1.066;2024-01-30T12:50:34;9.80;99.90
35559;DHT22;21661;50.794;-1.066;2024-01-30T12:52:59;9.80;99.90
35559;DHT22;21661;50.794;-1.066;2024-01-30T12:55:25;9.80;99.90
35559;DHT22;21661;50.794;-1.066;2024-01-30T12:57:54;9.80;99.90
35559;DHT22;21661;50.794;-1.066;2024-01-30T13:00:20;9.80;99.90
35559;DHT22;21661;50.794;-1.066;2024-01-30T13:02:45;9.80;99.90
35559;DHT22;21661;50.794;-1.066;2024-01-30T13:05:12;9.80;99.90
35559;DHT22;21661;50.794;-1.066;2024-01-30T13:07:38;9.70;99.90
35559;DHT22;21661;50.794;-1.066;2024-01-30T13:10:04;9.80;99.90
35559;DHT22;21661;50.794;-1.066;2024-01-30T13:12:30;9.80;99.90
35559;DHT22;21661;50.794;-1.066;2024-01-30T13:14:57;9.70;99.90
35559;DHT22;21661;50.794;-1.066;2024-01-30T13:17:23;9.70;99.90
35559;DHT22;21661;50.794;-1.066;2024-01-30T13:19:49;9.70;99.90
35559;DHT22;21661;50.794;-1.066;2024-01-30T13:22:15;9.70;99.90
35559;DHT22;21661;50.794;-1.066;2024-01-30T13:24:41;9.70;99.90
35559;DHT22;21661;50.794;-1.066;2024-01-30T13:27:07;9.70;99.90
35559;DHT22;21661;50.794;-1.066;2024-01-30T13:29:34;9.70;99.90
35559;DHT22;21661;50.794;-1.066;2024-01-30T13:31:59;9.70;99.90
35559;DHT22;21661;50.794;-1.066;2024-01-30T13:34:25;9.80;99.90
35559;DHT22;21661;50.794;-1.066;2024-01-30T13:36:51;9.70;99.90
35559;DHT22;21661;50.794;-1.066;2024-01-30T13:39:17;9.80;99.90
35559;DHT22;21661;50.794;-1.066;2024-01-30T13:41:43;9.70;99.90
35559;DHT22;21661;50.794;-1.066;2024-01-30T13:44:09;9.70;99.90
35559;DHT22;21661;50.794;-1.066;2024-01-30T13:46:35;9.70;99.90
35559;DHT22;21661;50.794;-1.066;2024-01-30T13:49:01;9.60;99.90
35559;DHT22;21661;50.794;-1.066;2024-01-30T13:51:27;9.60;99.90
35559;DHT22;21661;50.794;-1.066;2024-01-30T13:53:53;9.60;99.90
35559;DHT22;21661;50.794;-1.066;2024-01-30T13:56:20;9.70;99.90
35559;DHT22;21661;50.794;-1.066;2024-01-30T13:58:48;9.70;99.90
35559;DHT22;21661;50.794;-1.066;2024-01-30T14:01:14;9.70;99.90
35559;DHT22;21661;50.794;-1.066;2024-01-30T14:03:39;9.70;99.90
35559;DHT22;21661;50.794;-1.066;2024-01-30T14:06:05;9.80;99.90
35559;DHT22;21661;50.794;-1.066;2024-01-30T14:08:32;9.70;99.90
35559;DHT22;21661;50.794;-1.066;2024-01-30T14:10:58;9.70;99.90
35559;DHT22;21661;50.794;-1.066;2024-01-30T14:13:24;9.70;99.90
35559;DHT22;21661;50.794;-1.066;2024-01-30T14:15:52;9.70;99.90
35559;DHT22;21661;50.794;-1.066;2024-01-30T14:18:18;9.70;99.90
35559;DHT22;21661;50.794;-1.066;2024-01-30T14:20:44;9.80;99.90
35559;DHT22;21661;50.794;-1.066;2024-01-30T14:23:10;9.80;99.90
35559;DHT22;21661;50.794;-1.066;2024-01-30T14:25:35;9.80;99.90
35559;DHT22;21661;50.794;-1.066;2024-01-30T14:28:01;9.80;99.90
35559;DHT22;21661;50.794;-1.066;2024-01-30T14:30:27;9.90;99.90
35559;DHT22;21661;50.794;-1.066;2024-01-30T14:32:52;9.90;99.90
35559;DHT22;21661;50.794;-1.066;2024-01-30T14:35:18;9.80;99.90
35559;DHT22;21661;50.794;-1.066;2024-01-30T14:37:45;9.70;99.90
35559;DHT22;21661;50.794;-1.066;2024-01-30T14:40:10;9.80;99.90
35559;DHT22;21661;50.794;-1.066;2024-01-30T14:42:36;9.80;99.90
35559;DHT22;21661;50.794;-1.066;2024-01-30T14:45:03;9.80;99.90
35559;DHT22;21661;50.794;-1.066;2024-01-30T14:47:29;9.70;99.90
35559;DHT22;21661;50.794;-1.066;2024-01-30T14:49:56;9.70;99.90
35559;DHT22;21661;50.794;-1.066;2024-01-30T14:52:21;9.80;99.90
35559;DHT22;21661;50.794;-1.066;2024-01-30T14:54:47;9.80;99.90
35559;DHT22;21661;50.794;-1.066;2024-01-30T14:57:13;9.80;99.90
35559;DHT22;21661;50.794;-1.066;2024-01-30T14:59:39;9.80;99.90
35559;DHT22;21661;50.794;-1.066;2024-01-30T15:02:06;9.80;99.90
35559;DHT22;21661;50.794;-1.066;2024-01-30T15:04:31;9.90;99.90
35559;DHT22;21661;50.794;-1.066;2024-01-30T15:06:57;9.80;99.90
35559;DHT22;21661;50.794;-1.066;2024-01-30T15:09:23;9.90;99.90
35559;DHT22;21661;50.794;-1.066;2024-01-30T15:11:49;9.90;99.90
35559;DHT22;21661;50.794;-1.066;2024-01-30T15:14:15;9.80;99.90
35559;DHT22;21661;50.794;-1.066;2024-01-30T15:16:41;9.80;99.90
35559;DHT22;21661;50.794;-1.066;2024-01-30T15:19:07;9.70;99.90
35559;DHT22;21661;50.794;-1.066;2024-01-30T15:21:33;9.70;99.90
35559;DHT22;21661;50.794;-1.066;2024-01-30T15:23:58;9.70;99.90